FKKR

Details ICAO FKKR (GOU)
Name GAROUA
Region Cameroon
Timezone Africa/Douala (UTC+1.0)
Plans Departing 4
Arriving 4
Stats Elevation 794 ft / 242 m (AMSL)
Location 9.335890° 13.370103°
Runways 1
Magnetic Variation 0.544° E
Sunrise 2017-12-13 05:14:34 UTC / 2017-12-13 06:14:34 Local
Sunset 2017-12-13 16:49:40 UTC / 2017-12-13 17:49:40 Local
Advertisement - Login to hide

Runways

ID Width Length Bearing (true) Bearing (mag) Surface Threshold Offset Overrun Length
09 148 ft / 45 m 11,022 ft / 3,360 m 86.23° 85.69° Asphalt 0 ft / 0 m 492 ft / 150 m
27 148 ft / 45 m 11,022 ft / 3,360 m 266.23° 265.69° Asphalt 377 ft / 115 m 492 ft / 150 m

Map

Weather


0- 5 10 15 20 25 30 35+ Temperature / ° C

Clouds and Precipitation
Forecast for 2017-12-13 06:00 UTC. Updated 41 minutes ago

Ground ~20,000 ft ~40,000 ft Winds

METAR

Not found

TAF

TAF FKKR 130500Z 1306/1318 VRB03KT 8000 NSC ISSUED BY DOUALA MET OFFICE

Frequencies

Tower 118.30 MHz TWR
Tower 120.00 MHz TWR
Warning: Do not use this data for real-world aviation or navigation. No guarantee of current accuracy is given.